createdAt,value
2016-04-02T00:00:48.923Z,1011.75
2016-04-02T00:01:48.911Z,1011.76
2016-04-02T00:02:48.866Z,1011.74
2016-04-02T00:03:48.901Z,1011.75
2016-04-02T00:04:48.810Z,1011.76
2016-04-02T00:05:48.781Z,1011.75
2016-04-02T00:06:48.752Z,1011.77
2016-04-02T00:07:48.724Z,1011.75
2016-04-02T00:08:48.710Z,1011.71
2016-04-02T00:09:48.682Z,1011.68
2016-04-02T00:10:48.809Z,1011.71
2016-04-02T00:11:48.626Z,1011.72
2016-04-02T00:12:48.612Z,1011.74
2016-04-02T00:13:48.568Z,1011.69
2016-04-02T00:14:48.556Z,1011.73
2016-04-02T00:15:48.526Z,1011.73
2016-04-02T00:16:48.514Z,1011.75
2016-04-02T00:17:48.579Z,1011.73
2016-04-02T00:18:48.456Z,1011.75
2016-04-02T00:19:49.303Z,1011.76
2016-04-02T00:20:48.414Z,1011.71
2016-04-02T00:21:48.684Z,1011.74
2016-04-02T00:22:48.358Z,1011.75
2016-04-02T00:23:48.330Z,1011.8
2016-04-02T00:24:48.317Z,1011.77
2016-04-02T00:25:48.272Z,1011.78
2016-04-02T00:26:48.259Z,1011.77
2016-04-02T00:27:48.231Z,1011.84
2016-04-02T00:28:48.234Z,1011.84
2016-04-02T00:29:48.236Z,1011.8
2016-04-02T00:30:48.160Z,1011.81
2016-04-02T00:31:48.132Z,1011.84
2016-04-02T00:32:48.104Z,1011.81
2016-04-02T00:33:48.074Z,1011.82
2016-04-02T00:34:48.062Z,1011.82
2016-04-02T00:35:48.023Z,1011.81
2016-04-02T00:36:48.088Z,1011.83
2016-04-02T00:37:47.981Z,1011.86
2016-04-02T00:38:47.937Z,1011.89
2016-04-02T00:39:47.924Z,1011.87
2016-04-02T00:40:47.895Z,1011.91
2016-04-02T00:41:48.118Z,1011.87
2016-04-02T00:42:47.870Z,1011.91
2016-04-02T00:43:47.841Z,1011.9
2016-04-02T00:44:47.813Z,1011.9
2016-04-02T00:45:47.784Z,1011.92
2016-04-02T00:46:47.771Z,1011.9
2016-04-02T00:47:47.727Z,1011.9
2016-04-02T00:48:47.698Z,1011.89
2016-04-02T00:49:47.686Z,1011.93
2016-04-02T00:50:47.656Z,1011.9
2016-04-02T00:51:47.628Z,1011.9
2016-04-02T00:52:47.600Z,1011.95
2016-04-02T00:53:47.571Z,1011.89
2016-04-02T00:54:47.558Z,1011.92
2016-04-02T00:55:47.530Z,1011.88
2016-04-02T00:56:47.501Z,1011.88
2016-04-02T00:57:47.472Z,1011.9
2016-04-02T00:58:47.443Z,1011.86
2016-04-02T00:59:47.447Z,1011.89
2016-04-02T01:00:47.465Z,1011.9
2016-04-02T01:01:47.374Z,1011.96
2016-04-02T01:02:47.361Z,1011.91
2016-04-02T01:03:47.348Z,1011.87
2016-04-02T01:04:47.319Z,1011.88
2016-04-02T01:05:47.307Z,1011.92
2016-04-02T01:06:47.247Z,1011.91
2016-04-02T01:07:47.281Z,1011.95
2016-04-02T01:08:47.189Z,1011.92
2016-04-02T01:09:47.162Z,1011.93
2016-04-02T01:10:47.149Z,1011.91
2016-04-02T01:11:47.120Z,1011.88
2016-04-02T01:12:47.091Z,1011.87
2016-04-02T01:13:47.062Z,1011.87
2016-04-02T01:14:47.065Z,1011.86
2016-04-02T01:15:47.020Z,1011.8
2016-04-02T01:16:47.024Z,1011.81
2016-04-02T01:17:47.026Z,1011.76
2016-04-02T01:18:46.935Z,1011.75
2016-04-02T01:19:46.922Z,1011.77
2016-04-02T01:20:46.894Z,1011.76
2016-04-02T01:21:46.897Z,1011.76
2016-04-02T01:22:46.837Z,1011.78
2016-04-02T01:23:46.825Z,1011.78
2016-04-02T01:24:47.045Z,1011.74
2016-04-02T01:25:46.766Z,1011.76
2016-04-02T01:26:46.738Z,1011.72
2016-04-02T01:27:46.710Z,1011.7
2016-04-02T01:28:46.681Z,1011.7
2016-04-02T01:29:46.684Z,1011.7
2016-04-02T01:30:46.796Z,1011.67
2016-04-02T01:31:46.627Z,1011.71
2016-04-02T01:32:46.583Z,1011.7
2016-04-02T01:33:46.616Z,1011.69
2016-04-02T01:34:46.635Z,1011.68
2016-04-02T01:35:47.278Z,1011.68
2016-04-02T01:36:46.734Z,1011.68
2016-04-02T01:37:46.737Z,1011.68
2016-04-02T01:38:46.443Z,1011.62
2016-04-02T01:39:46.632Z,1011.65
2016-04-02T01:40:46.479Z,1011.63
2016-04-02T01:41:46.373Z,1011.6
2016-04-02T01:42:46.343Z,1011.59
2016-04-02T01:43:46.315Z,1011.57
2016-04-02T01:44:46.287Z,1011.59
2016-04-02T01:45:46.273Z,1011.56
2016-04-02T01:46:46.229Z,1011.54
2016-04-02T01:47:46.357Z,1011.55
2016-04-02T01:48:46.312Z,1011.58
2016-04-02T01:49:46.222Z,1011.55
2016-04-02T01:50:46.130Z,1011.56
2016-04-02T01:51:46.133Z,1011.54
2016-04-02T01:52:46.277Z,1011.52
2016-04-02T01:53:46.076Z,1011.51
2016-04-02T01:54:46.047Z,1011.57
2016-04-02T01:55:46.003Z,1011.54
2016-04-02T01:56:45.984Z,1011.53
2016-04-02T01:57:45.959Z,1011.5
2016-04-02T01:58:45.903Z,1011.46
2016-04-02T01:59:46.004Z,1011.43
2016-04-02T02:00:45.901Z,1011.43
2016-04-02T02:01:45.881Z,1011.46
2016-04-02T02:02:45.754Z,1011.45
2016-04-02T02:03:45.738Z,1011.42
2016-04-02T02:04:45.954Z,1011.44
2016-04-02T02:05:45.735Z,1011.45
2016-04-02T02:06:45.813Z,1011.45
2016-04-02T02:07:45.626Z,1011.45
2016-04-02T02:08:45.824Z,1011.49
2016-04-02T02:09:45.622Z,1011.42
2016-04-02T02:10:45.576Z,1011.48
2016-04-02T02:11:45.516Z,1011.43
2016-04-02T02:12:45.535Z,1011.44
2016-04-02T02:13:45.443Z,1011.47
2016-04-02T02:14:45.562Z,1011.46
2016-04-02T02:15:45.768Z,1011.47
2016-04-02T02:16:45.459Z,1011.49
2016-04-02T02:17:45.773Z,1011.45
2016-04-02T02:18:45.338Z,1011.44
2016-04-02T02:19:45.449Z,1011.42
2016-04-02T02:20:45.342Z,1011.42
2016-04-02T02:21:45.251Z,1011.42
2016-04-02T02:22:45.253Z,1011.43
2016-04-02T02:23:45.240Z,1011.44
2016-04-02T02:24:45.243Z,1011.43
2016-04-02T02:25:45.245Z,1011.4
2016-04-02T02:26:45.108Z,1011.37
2016-04-02T02:27:45.112Z,1011.37
2016-04-02T02:28:45.067Z,1011.37
2016-04-02T02:29:45.070Z,1011.36
2016-04-02T02:30:45.166Z,1011.35
2016-04-02T02:31:44.997Z,1011.34
2016-04-02T02:32:44.984Z,1011.32
2016-04-02T02:33:44.940Z,1011.34
2016-04-02T02:34:44.928Z,1011.3
2016-04-02T02:35:45.055Z,1011.28
2016-04-02T02:36:44.886Z,1011.28
2016-04-02T02:37:45.061Z,1011.25
2016-04-02T02:38:44.813Z,1011.21
2016-04-02T02:39:44.784Z,1011.2
2016-04-02T02:40:44.880Z,1011.22
2016-04-02T02:41:44.806Z,1011.21
2016-04-02T02:42:44.714Z,1011.18
2016-04-02T02:43:44.795Z,1011.19
2016-04-02T02:44:44.798Z,1011.17
2016-04-02T02:45:44.707Z,1011.16
2016-04-02T02:46:44.600Z,1011.2
2016-04-02T02:47:44.588Z,1011.18
2016-04-02T02:48:44.590Z,1011.19
2016-04-02T02:49:44.546Z,1011.08
2016-04-02T02:50:44.501Z,1011.16
2016-04-02T02:51:45.176Z,1011.14
2016-04-02T02:52:44.460Z,1011.16
2016-04-02T02:53:44.446Z,1011.14
2016-04-02T02:54:44.402Z,1011.16
2016-04-02T02:55:44.374Z,1011.16
2016-04-02T02:56:44.346Z,1011.17
2016-04-02T02:57:44.615Z,1011.16
2016-04-02T02:58:44.304Z,1011.16
2016-04-02T02:59:44.307Z,1011.17
2016-04-02T03:00:44.293Z,1011.11
2016-04-02T03:01:44.328Z,1011.1
2016-04-02T03:02:44.190Z,1011.16
2016-04-02T03:03:44.161Z,1011.11
2016-04-02T03:04:44.180Z,1011.08
2016-04-02T03:05:44.120Z,1011.11
2016-04-02T03:06:44.092Z,1011.14
2016-04-02T03:07:44.110Z,1011.13
2016-04-02T03:08:44.066Z,1011.1
2016-04-02T03:09:44.022Z,1011.14
2016-04-02T03:10:44.009Z,1011.18
2016-04-02T03:11:43.964Z,1011.16
2016-04-02T03:12:43.936Z,1011.18
2016-04-02T03:13:43.923Z,1011.16
2016-04-02T03:14:43.878Z,1011.23
2016-04-02T03:15:43.975Z,1011.18
2016-04-02T03:16:43.883Z,1011.17
2016-04-02T03:17:43.964Z,1011.15
2016-04-02T03:18:43.796Z,1011.13
2016-04-02T03:19:43.752Z,1011.12
2016-04-02T03:20:43.723Z,1011.1
2016-04-02T03:21:43.710Z,1011.08
2016-04-02T03:22:43.666Z,1011.05
2016-04-02T03:23:43.637Z,1011.02
2016-04-02T03:24:43.624Z,1011.01
2016-04-02T03:25:43.674Z,1011.01
2016-04-02T03:26:43.567Z,1010.98
2016-04-02T03:27:43.554Z,1011.02
2016-04-02T03:28:44.057Z,1010.98
2016-04-02T03:29:43.701Z,1010.99
2016-04-02T03:30:43.610Z,1010.94
2016-04-02T03:31:43.456Z,1010.98
2016-04-02T03:32:43.412Z,1010.96
2016-04-02T03:33:43.398Z,1011.02
2016-04-02T03:34:43.354Z,1011.02
2016-04-02T03:35:43.342Z,1011.01
2016-04-02T03:36:43.313Z,1011.01
2016-04-02T03:37:43.284Z,1010.99
2016-04-02T03:38:43.256Z,1011.02
2016-04-02T03:39:43.242Z,1010.99
2016-04-02T03:40:43.245Z,1011
2016-04-02T03:41:43.436Z,1010.95
2016-04-02T03:42:43.189Z,1010.93
2016-04-02T03:43:43.129Z,1010.88
2016-04-02T03:44:43.147Z,1010.91
2016-04-02T03:45:43.353Z,1010.89
2016-04-02T03:46:43.043Z,1010.9
2016-04-02T03:47:43.045Z,1010.89
2016-04-02T03:48:43.439Z,1010.91
2016-04-02T03:49:42.972Z,1010.88
2016-04-02T03:50:42.944Z,1010.85
2016-04-02T03:51:42.915Z,1010.9
2016-04-02T03:52:42.965Z,1010.84
2016-04-02T03:53:42.874Z,1010.88
2016-04-02T03:54:42.938Z,1010.89
2016-04-02T03:55:42.816Z,1010.9
2016-04-02T03:56:42.835Z,1010.87
2016-04-02T03:57:42.760Z,1010.89
2016-04-02T03:58:42.747Z,1010.88
2016-04-02T03:59:42.718Z,1010.86
2016-04-02T04:00:42.674Z,1010.8
2016-04-02T04:01:42.676Z,1010.81
2016-04-02T04:02:42.632Z,1010.82
2016-04-02T04:03:42.667Z,1010.82
2016-04-02T04:04:42.638Z,1010.82
2016-04-02T04:05:42.579Z,1010.81
2016-04-02T04:06:42.535Z,1010.82
2016-04-02T04:07:42.615Z,1010.84
2016-04-02T04:08:42.477Z,1010.82
2016-04-02T04:09:42.449Z,1010.86
2016-04-02T04:10:42.514Z,1010.84
2016-04-02T04:11:42.392Z,1010.84
2016-04-02T04:12:42.878Z,1010.86
2016-04-02T04:13:42.381Z,1010.85
2016-04-02T04:14:42.322Z,1010.86
2016-04-02T04:15:42.308Z,1010.88
2016-04-02T04:16:42.264Z,1010.85
2016-04-02T04:17:42.250Z,1010.83
2016-04-02T04:18:42.207Z,1010.82
2016-04-02T04:19:42.194Z,1010.81
2016-04-02T04:20:42.306Z,1010.79
2016-04-02T04:21:42.216Z,1010.83
2016-04-02T04:22:42.249Z,1010.78
2016-04-02T04:23:42.127Z,1010.8
2016-04-02T04:24:42.208Z,1010.78
2016-04-02T04:25:42.022Z,1010.76
2016-04-02T04:26:42.307Z,1010.78
2016-04-02T04:27:41.996Z,1010.78
2016-04-02T04:28:41.968Z,1010.73
2016-04-02T04:29:41.923Z,1010.73
2016-04-02T04:30:41.895Z,1010.72
2016-04-02T04:31:41.882Z,1010.66
2016-04-02T04:32:41.901Z,1010.7
2016-04-02T04:33:41.825Z,1010.65
2016-04-02T04:34:41.782Z,1010.66
2016-04-02T04:35:41.768Z,1010.64
2016-04-02T04:36:41.740Z,1010.64
2016-04-02T04:37:41.712Z,1010.63
2016-04-02T04:38:41.698Z,1010.62
2016-04-02T04:39:41.654Z,1010.59
2016-04-02T04:40:41.641Z,1010.55
2016-04-02T04:41:41.612Z,1010.59
2016-04-02T04:42:41.615Z,1010.63
2016-04-02T04:43:41.634Z,1010.61
2016-04-02T04:44:41.528Z,1010.58
2016-04-02T04:45:41.498Z,1010.59
2016-04-02T04:46:41.501Z,1010.57
2016-04-02T04:47:41.473Z,1010.61
2016-04-02T04:48:41.428Z,1010.59
2016-04-02T04:49:41.525Z,1010.57
2016-04-02T04:50:41.511Z,1010.56
2016-04-02T04:51:41.436Z,1010.54
2016-04-02T04:52:41.580Z,1010.55
2016-04-02T04:53:41.566Z,1010.56
2016-04-02T04:54:41.272Z,1010.55
2016-04-02T04:55:41.291Z,1010.6
2016-04-02T04:56:41.371Z,1010.57
2016-04-02T04:57:41.234Z,1010.53
2016-04-02T04:58:41.158Z,1010.53
2016-04-02T04:59:41.161Z,1010.54
2016-04-02T05:00:41.117Z,1010.55
2016-04-02T05:01:41.088Z,1010.54
2016-04-02T05:02:41.060Z,1010.54
2016-04-02T05:03:41.140Z,1010.55
2016-04-02T05:04:41.096Z,1010.56
2016-04-02T05:05:40.974Z,1010.6
2016-04-02T05:06:40.945Z,1010.6
2016-04-02T05:07:40.917Z,1010.62
2016-04-02T05:08:40.934Z,1010.58
2016-04-02T05:09:40.875Z,1010.6
2016-04-02T05:10:40.847Z,1010.57
2016-04-02T05:11:40.817Z,1010.55
2016-04-02T05:12:40.790Z,1010.53
2016-04-02T05:13:40.761Z,1010.56
2016-04-02T05:14:40.733Z,1010.51
2016-04-02T05:15:40.704Z,1010.52
2016-04-02T05:16:40.691Z,1010.54
2016-04-02T05:17:40.662Z,1010.58
2016-04-02T05:18:40.633Z,1010.53
2016-04-02T05:19:40.667Z,1010.52
2016-04-02T05:20:40.608Z,1010.49
2016-04-02T05:21:40.548Z,1010.48
2016-04-02T05:22:40.520Z,1010.47
2016-04-02T05:23:40.539Z,1010.43
2016-04-02T05:24:40.478Z,1010.42
2016-04-02T05:25:40.434Z,1010.44
2016-04-02T05:26:40.421Z,1010.42
2016-04-02T05:27:40.408Z,1010.46
2016-04-02T05:28:40.364Z,1010.5
2016-04-02T05:29:40.351Z,1010.52
2016-04-02T05:30:40.322Z,1010.52
2016-04-02T05:31:40.293Z,1010.56
2016-04-02T05:32:40.265Z,1010.59
2016-04-02T05:33:40.393Z,1010.55
2016-04-02T05:34:40.270Z,1010.55
2016-04-02T05:35:40.179Z,1010.56
2016-04-02T05:36:40.151Z,1010.56
2016-04-02T05:37:40.123Z,1010.56
2016-04-02T05:38:40.094Z,1010.59
2016-04-02T05:39:40.096Z,1010.65
2016-04-02T05:40:40.053Z,1010.62
2016-04-02T05:41:40.023Z,1010.67
2016-04-02T05:42:40.011Z,1010.61
2016-04-02T05:43:39.967Z,1010.67
2016-04-02T05:44:39.938Z,1010.68
2016-04-02T05:45:39.909Z,1010.69
2016-04-02T05:46:39.911Z,1010.7
2016-04-02T05:47:39.852Z,1010.68
2016-04-02T05:48:39.839Z,1010.68
2016-04-02T05:49:39.811Z,1010.71
2016-04-02T05:50:39.783Z,1010.69
2016-04-02T05:51:39.770Z,1010.69
2016-04-02T05:52:39.725Z,1010.72
2016-04-02T05:53:39.713Z,1010.73
2016-04-02T05:54:39.684Z,1010.76
2016-04-02T05:55:39.671Z,1010.74
2016-04-02T05:56:39.627Z,1010.73
2016-04-02T05:57:39.613Z,1010.75
2016-04-02T05:58:39.569Z,1010.78
2016-04-02T05:59:39.541Z,1010.82
2016-04-02T06:00:39.528Z,1010.8
2016-04-02T06:01:39.485Z,1010.87
2016-04-02T06:02:39.487Z,1010.83
2016-04-02T06:03:39.443Z,1010.88
2016-04-02T06:04:39.414Z,1010.87
2016-04-02T06:05:39.479Z,1010.88
2016-04-02T06:06:39.373Z,1010.86
2016-04-02T06:07:39.328Z,1010.9
2016-04-02T06:08:39.315Z,1010.87
2016-04-02T06:09:39.287Z,1010.85
2016-04-02T06:10:39.273Z,1010.85
2016-04-02T06:11:39.229Z,1010.82
2016-04-02T06:12:39.200Z,1010.82
2016-04-02T06:13:39.172Z,1010.78
2016-04-02T06:14:39.144Z,1010.75
2016-04-02T06:15:39.131Z,1010.75
2016-04-02T06:16:39.103Z,1010.78
2016-04-02T06:17:39.074Z,1010.79
2016-04-02T06:18:39.045Z,1010.76
2016-04-02T06:19:39.048Z,1010.78
2016-04-02T06:20:38.988Z,1010.76
2016-04-02T06:21:38.959Z,1010.74
2016-04-02T06:22:38.947Z,1010.72
2016-04-02T06:23:38.918Z,1010.69
2016-04-02T06:24:38.889Z,1010.69
2016-04-02T06:25:38.860Z,1010.68
2016-04-02T06:26:38.832Z,1010.73
2016-04-02T06:27:38.804Z,1010.71
2016-04-02T06:28:38.790Z,1010.68
2016-04-02T06:29:38.777Z,1010.67
2016-04-02T06:30:38.733Z,1010.64
2016-04-02T06:31:38.704Z,1010.67
2016-04-02T06:32:38.677Z,1010.66
2016-04-02T06:33:38.648Z,1010.62
2016-04-02T06:34:38.776Z,1010.62
2016-04-02T06:35:38.590Z,1010.64
2016-04-02T06:36:38.562Z,1010.69
2016-04-02T06:37:38.534Z,1010.67
2016-04-02T06:38:38.505Z,1010.66
2016-04-02T06:39:38.493Z,1010.65
2016-04-02T06:40:38.465Z,1010.68
2016-04-02T06:41:38.435Z,1010.67
2016-04-02T06:42:38.407Z,1010.67
2016-04-02T06:43:38.394Z,1010.68
2016-04-02T06:44:38.365Z,1010.72
2016-04-02T06:45:38.353Z,1010.75
2016-04-02T06:46:38.323Z,1010.74
2016-04-02T06:47:38.295Z,1010.77
2016-04-02T06:48:38.267Z,1010.76
2016-04-02T06:49:38.222Z,1010.72
2016-04-02T06:50:38.209Z,1010.7
2016-04-02T06:51:38.196Z,1010.69
2016-04-02T06:52:38.167Z,1010.67
2016-04-02T06:53:38.124Z,1010.67
2016-04-02T06:54:38.111Z,1010.66
2016-04-02T06:55:38.161Z,1010.66
2016-04-02T06:57:38.025Z,1010.56
2016-04-02T06:58:38.012Z,1010.57
2016-04-02T06:59:37.968Z,1010.61
2016-04-02T07:00:37.955Z,1010.63
2016-04-02T07:01:37.910Z,1010.6
2016-04-02T07:02:37.944Z,1010.66
2016-04-02T07:03:37.868Z,1010.63
2016-04-02T07:04:37.840Z,1010.61
2016-04-02T07:05:37.859Z,1010.59
2016-04-02T07:06:37.799Z,1010.6
2016-04-02T07:07:37.754Z,1010.63
2016-04-02T07:08:37.743Z,1010.59
2016-04-02T07:09:37.713Z,1010.57
2016-04-02T07:10:37.685Z,1010.56
2016-04-02T07:11:37.657Z,1010.58
2016-04-02T07:12:37.690Z,1010.57
2016-04-02T07:13:37.615Z,1010.54
2016-04-02T07:14:37.602Z,1010.51
2016-04-02T07:15:37.558Z,1010.51
2016-04-02T07:16:37.623Z,1010.47
2016-04-02T07:17:37.532Z,1010.46
2016-04-02T07:18:37.628Z,1010.45
2016-04-02T07:19:37.459Z,1010.38
2016-04-02T07:20:37.431Z,1010.38
2016-04-02T07:21:37.464Z,1010.41
2016-04-02T07:22:37.389Z,1010.39
2016-04-02T07:23:37.361Z,1010.41
2016-04-02T07:24:37.332Z,1010.42
2016-04-02T07:25:37.335Z,1010.44
2016-04-02T07:26:37.274Z,1010.45
2016-04-02T07:27:37.246Z,1010.39
2016-04-02T07:28:37.233Z,1010.49
2016-04-02T07:29:37.205Z,1010.51
2016-04-02T07:30:37.192Z,1010.54
2016-04-02T07:31:37.163Z,1010.57
2016-04-02T07:32:37.135Z,1010.54
2016-04-02T07:33:37.106Z,1010.52
2016-04-02T07:34:37.077Z,1010.52
2016-04-02T07:35:37.049Z,1010.49
2016-04-02T07:36:37.036Z,1010.51
2016-04-02T07:37:36.992Z,1010.49
2016-04-02T07:38:36.979Z,1010.44
2016-04-02T07:39:36.950Z,1010.46
2016-04-02T07:40:36.921Z,1010.41
2016-04-02T07:41:36.893Z,1010.42
2016-04-02T07:42:36.881Z,1010.34
2016-04-02T07:43:36.868Z,1010.35
2016-04-02T07:44:36.823Z,1010.33
2016-04-02T07:45:36.842Z,1010.33
2016-04-02T07:46:36.781Z,1010.28
2016-04-02T07:47:36.784Z,1010.27
2016-04-02T07:48:36.725Z,1010.25
2016-04-02T07:49:36.711Z,1010.29
2016-04-02T07:50:36.668Z,1010.26
2016-04-02T07:51:36.655Z,1010.27
2016-04-02T07:52:36.626Z,1010.26
2016-04-02T07:53:36.598Z,1010.27
2016-04-02T07:54:36.600Z,1010.27
2016-04-02T07:55:36.556Z,1010.23
2016-04-02T07:56:36.527Z,1010.28
2016-04-02T07:57:36.499Z,1010.27
2016-04-02T07:58:36.469Z,1010.3
2016-04-02T07:59:36.441Z,1010.27
2016-04-02T08:00:36.429Z,1010.27
2016-04-02T08:01:36.416Z,1010.24
2016-04-02T08:02:36.372Z,1010.23
2016-04-02T08:03:36.344Z,1010.26
2016-04-02T08:04:36.330Z,1010.23
2016-04-02T08:05:36.411Z,1010.25
2016-04-02T08:06:36.288Z,1010.23
2016-04-02T08:07:36.244Z,1010.27
2016-04-02T08:08:36.231Z,1010.32
2016-04-02T08:09:36.249Z,1010.31
2016-04-02T08:10:36.190Z,1010.32
2016-04-02T08:11:36.176Z,1010.33
2016-04-02T08:12:36.132Z,1010.36
2016-04-02T08:13:36.089Z,1010.36
2016-04-02T08:14:36.076Z,1010.36
2016-04-02T08:15:36.173Z,1010.39
2016-04-02T08:16:36.034Z,1010.4
2016-04-02T08:17:36.037Z,1010.39
2016-04-02T08:18:36.039Z,1010.37
2016-04-02T08:19:35.995Z,1010.4
2016-04-02T08:20:35.951Z,1010.44
2016-04-02T08:21:36.001Z,1010.45
2016-04-02T08:22:35.879Z,1010.44
2016-04-02T08:23:36.178Z,1010.48
2016-04-02T08:24:35.994Z,1010.49
2016-04-02T08:25:35.808Z,1010.45
2016-04-02T08:26:35.889Z,1010.49
2016-04-02T08:27:35.766Z,1010.47
2016-04-02T08:28:35.738Z,1010.46
2016-04-02T08:29:35.710Z,1010.45
2016-04-02T08:30:35.697Z,1010.45
2016-04-02T08:31:35.653Z,1010.42
2016-04-02T08:32:35.655Z,1010.44
2016-04-02T08:33:35.643Z,1010.42
2016-04-02T08:34:35.582Z,1010.4
2016-04-02T08:35:35.569Z,1010.41
2016-04-02T08:36:35.540Z,1010.47
2016-04-02T08:37:35.512Z,1010.44
2016-04-02T08:38:35.484Z,1010.49
2016-04-02T08:39:35.471Z,1010.44
2016-04-02T08:40:35.442Z,1010.46
2016-04-02T08:41:35.415Z,1010.46
2016-04-02T08:42:35.401Z,1010.46
2016-04-02T08:43:35.357Z,1010.46
2016-04-02T08:44:35.343Z,1010.44
2016-04-02T08:45:35.362Z,1010.46
2016-04-02T08:46:35.599Z,1010.47
2016-04-02T08:47:35.274Z,1010.46
2016-04-02T08:48:35.479Z,1010.44
2016-04-02T08:49:35.217Z,1010.46
2016-04-02T08:50:35.203Z,1010.46
2016-04-02T08:51:35.175Z,1010.46
2016-04-02T08:52:35.162Z,1010.41
2016-04-02T08:53:35.258Z,1010.41
2016-04-02T08:54:35.339Z,1010.39
2016-04-02T08:57:35.067Z,1010.29
2016-04-02T08:58:35.006Z,1010.28
2016-04-02T08:59:35.009Z,1010.29
2016-04-02T09:00:34.965Z,1010.33
2016-04-02T09:01:34.936Z,1010.3
2016-04-02T09:02:34.907Z,1010.3
2016-04-02T09:03:34.895Z,1010.28
2016-04-02T09:04:34.851Z,1010.29
2016-04-02T09:05:34.854Z,1010.24
2016-04-02T09:06:34.809Z,1010.22
2016-04-02T09:07:34.780Z,1010.2
2016-04-02T09:08:34.767Z,1010.2
2016-04-02T09:09:34.739Z,1010.22
2016-04-02T09:10:34.726Z,1010.23
2016-04-02T09:11:34.698Z,1010.2
2016-04-02T09:12:34.685Z,1010.18
2016-04-02T09:13:34.656Z,1010.21
2016-04-02T09:14:34.628Z,1010.22
2016-04-02T09:15:34.599Z,1010.12
2016-04-02T09:16:34.618Z,1010.14
2016-04-02T09:17:34.558Z,1010.17
2016-04-02T09:18:34.529Z,1010.13
2016-04-02T09:19:34.501Z,1010.13
2016-04-02T09:20:34.487Z,1010.14
2016-04-02T09:21:34.459Z,1010.14
2016-04-02T09:22:34.461Z,1010.12
2016-04-02T09:23:34.417Z,1010.08
2016-04-02T09:24:34.389Z,1010.04
2016-04-02T09:25:34.361Z,1010.01
2016-04-02T09:26:34.348Z,1010.01
2016-04-02T09:27:34.319Z,1010.02
2016-04-02T09:28:34.322Z,1010.06
2016-04-02T09:29:34.261Z,1010.06
2016-04-02T09:30:34.296Z,1010.01
2016-04-02T09:31:34.219Z,1010.06
2016-04-02T09:32:34.207Z,1010.04
2016-04-02T09:33:34.163Z,1010.05
2016-04-02T09:34:34.150Z,1010.04
2016-04-02T09:36:34.093Z,1010.06
2016-04-02T09:37:34.080Z,1010.07
2016-04-02T09:38:34.067Z,1010.05
2016-04-02T09:39:34.039Z,1010.03
2016-04-02T09:40:34.010Z,1010.05
2016-04-02T09:41:33.982Z,1010.03
2016-04-02T09:42:33.968Z,1010.05
2016-04-02T09:43:33.940Z,1009.96
2016-04-02T09:44:33.912Z,1009.93
2016-04-02T09:45:33.898Z,1009.93
2016-04-02T09:46:33.932Z,1009.98
2016-04-02T09:47:33.856Z,1010
2016-04-02T09:48:33.829Z,1009.96
2016-04-02T09:49:33.815Z,1009.93
2016-04-02T09:50:33.803Z,1009.92
2016-04-02T09:51:33.742Z,1009.9
2016-04-02T09:52:33.730Z,1009.92
2016-04-02T09:53:33.701Z,1009.91
2016-04-02T09:54:33.688Z,1009.9
2016-04-02T09:55:33.659Z,1009.96
2016-04-02T09:56:33.631Z,1009.99
2016-04-02T09:57:33.650Z,1009.99
2016-04-02T09:58:33.590Z,1010.05
2016-04-02T09:59:33.561Z,1010.03
2016-04-02T10:00:33.564Z,1010.06
2016-04-02T10:01:33.675Z,1010.01
2016-04-02T10:02:33.491Z,1010.03
2016-04-02T10:03:33.463Z,1010.04
2016-04-02T10:04:33.481Z,1010.02
2016-04-02T10:05:33.422Z,1009.98
2016-04-02T10:06:33.393Z,1009.99
2016-04-02T10:07:33.396Z,1010
2016-04-02T10:08:33.351Z,1009.94
2016-04-02T10:09:33.322Z,1009.95
2016-04-02T10:10:33.324Z,1009.95
2016-04-02T10:11:33.281Z,1009.94
2016-04-02T10:12:33.252Z,1009.92
2016-04-02T10:13:33.287Z,1009.91
2016-04-02T10:14:33.211Z,1009.86
2016-04-02T10:15:33.198Z,1009.91
2016-04-02T10:16:33.170Z,1009.87
2016-04-02T10:17:33.140Z,1009.9
2016-04-02T10:18:33.128Z,1009.94
2016-04-02T10:19:33.098Z,1009.94
2016-04-02T10:20:33.398Z,1009.93
2016-04-02T10:21:33.058Z,1009.88
2016-04-02T10:22:33.045Z,1009.86
2016-04-02T10:23:33.017Z,1009.85
2016-04-02T10:24:33.034Z,1009.82
2016-04-02T10:25:33.053Z,1009.83
2016-04-02T10:26:32.930Z,1009.82
2016-04-02T10:27:32.917Z,1009.87
2016-04-02T10:28:32.889Z,1009.82
2016-04-02T10:29:32.876Z,1009.88
2016-04-02T10:30:32.848Z,1009.87
2016-04-02T10:31:32.850Z,1009.92
2016-04-02T10:32:32.822Z,1009.92
2016-04-02T10:33:32.777Z,1009.9
2016-04-02T10:34:32.764Z,1009.83
2016-04-02T10:35:32.735Z,1009.84
2016-04-02T10:36:32.707Z,1009.82
2016-04-02T10:37:32.679Z,1009.78
2016-04-02T10:38:32.666Z,1009.74
2016-04-02T10:39:32.653Z,1009.74
2016-04-02T10:40:32.640Z,1009.74
2016-04-02T10:41:32.596Z,1009.72
2016-04-02T10:42:32.583Z,1009.65
2016-04-02T10:43:32.570Z,1009.56
2016-04-02T10:44:32.526Z,1009.53
2016-04-02T10:45:32.512Z,1009.44
2016-04-02T10:46:32.468Z,1009.42
2016-04-02T10:47:32.503Z,1009.38
2016-04-02T10:48:32.443Z,1009.4
2016-04-02T10:49:32.415Z,1009.36
2016-04-02T10:50:32.386Z,1009.42
2016-04-02T10:51:32.420Z,1009.39
2016-04-02T10:52:32.344Z,1009.37
2016-04-02T10:53:32.316Z,1009.41
2016-04-02T10:54:32.287Z,1009.42
2016-04-02T10:55:32.275Z,1009.38
2016-04-02T10:56:32.262Z,1009.36
2016-04-02T10:57:32.248Z,1009.3
2016-04-02T10:58:32.236Z,1009.28
2016-04-02T10:59:32.206Z,1009.29
2016-04-02T11:00:32.178Z,1009.28
2016-04-02T11:01:32.165Z,1009.28
2016-04-02T11:02:32.126Z,1009.21
2016-04-02T11:03:32.086Z,1009.17
2016-04-02T11:04:32.047Z,1009.13
2016-04-02T11:05:32.226Z,1009.09
2016-04-02T11:06:31.983Z,1009.08
2016-04-02T11:07:31.965Z,1009.09
2016-04-02T11:08:31.933Z,1009.1
2016-04-02T11:09:31.900Z,1009.11
2016-04-02T11:10:31.882Z,1009.13
2016-04-02T11:11:32.162Z,1009.13
2016-04-02T11:12:31.820Z,1009.1
2016-04-02T11:13:31.789Z,1009.05
2016-04-02T11:14:31.775Z,1009.04
2016-04-02T11:15:31.745Z,1008.96
2016-04-02T11:16:31.714Z,1008.96
2016-04-02T11:17:31.702Z,1008.96
2016-04-02T11:18:31.689Z,1008.97
2016-04-02T11:19:31.660Z,1008.97
2016-04-02T11:20:31.662Z,1008.99
2016-04-02T11:21:31.617Z,1009.03
2016-04-02T11:22:31.589Z,1008.99
2016-04-02T11:23:31.560Z,1008.98
2016-04-02T11:24:31.532Z,1008.98
2016-04-02T11:25:31.551Z,1008.97
2016-04-02T11:26:31.553Z,1008.93
2016-04-02T11:27:31.525Z,1008.89
2016-04-02T11:28:31.652Z,1008.81
2016-04-02T11:29:31.498Z,1008.8
2016-04-02T11:30:31.405Z,1008.76
2016-04-02T11:31:31.376Z,1008.79
2016-04-02T11:32:31.425Z,1008.8
2016-04-02T11:33:31.491Z,1008.84
2016-04-02T11:34:31.322Z,1008.79
2016-04-02T11:35:31.309Z,1008.75
2016-04-02T11:36:31.297Z,1008.74
2016-04-02T11:37:31.470Z,1008.75
2016-04-02T11:38:31.333Z,1008.73
2016-04-02T11:39:31.538Z,1008.73
2016-04-02T11:40:31.838Z,1008.7
2016-04-02T11:41:31.184Z,1008.66
2016-04-02T11:42:31.187Z,1008.64
2016-04-02T11:43:31.127Z,1008.65
2016-04-02T11:44:31.223Z,1008.59
2016-04-02T11:45:31.071Z,1008.63
2016-04-02T11:46:31.073Z,1008.57
2016-04-02T11:47:31.044Z,1008.59
2016-04-02T11:48:31.031Z,1008.6
2016-04-02T11:49:31.065Z,1008.57
2016-04-02T11:50:30.974Z,1008.62
2016-04-02T11:51:31.508Z,1008.54
2016-04-02T11:52:31.480Z,1008.61
2016-04-02T11:53:30.920Z,1008.55
2016-04-02T11:54:30.954Z,1008.48
2016-04-02T11:55:31.018Z,1008.5
2016-04-02T11:56:30.850Z,1008.52
2016-04-02T11:57:31.086Z,1008.55
2016-04-02T11:58:30.948Z,1008.54
2016-04-02T11:59:31.045Z,1008.55
2016-04-02T12:00:30.922Z,1008.48
2016-04-02T12:01:30.754Z,1008.47
2016-04-02T12:02:31.959Z,1008.44
2016-04-02T12:03:30.759Z,1008.41
2016-04-02T12:04:30.667Z,1008.45
2016-04-02T12:05:31.467Z,1008.48
2016-04-02T12:06:31.720Z,1008.5
2016-04-02T12:07:30.660Z,1008.52
2016-04-02T12:08:30.928Z,1008.5
2016-04-02T12:09:30.634Z,1008.46
2016-04-02T12:10:30.574Z,1008.46
2016-04-02T12:11:30.546Z,1008.47
2016-04-02T12:12:30.799Z,1008.49